createdAt,value
2022-10-31T00:13:02.395Z,1022.73
2022-10-31T00:41:38.833Z,1022.65
2022-10-31T01:10:43.231Z,1022.77
2022-10-31T01:39:48.868Z,1022.74
2022-10-31T02:08:47.937Z,1022.57
2022-10-31T02:37:50.933Z,1022.41
2022-10-31T03:06:53.015Z,1022.25
2022-10-31T03:35:46.725Z,1022.2
2022-10-31T04:04:47.684Z,1022.2
2022-10-31T04:33:55.509Z,1022.19
2022-10-31T05:02:46.267Z,1022.12
2022-10-31T05:31:49.457Z,1021.89
2022-10-31T06:00:53.958Z,1022.02
2022-10-31T06:29:49.354Z,1021.97
2022-10-31T06:58:50.762Z,1021.97
2022-10-31T07:27:52.248Z,1022.11
2022-10-31T07:56:59.734Z,1022.24
2022-10-31T08:26:01.402Z,1022.27
2022-10-31T08:55:04.013Z,1022.1
2022-10-31T09:24:10.442Z,1021.89
2022-10-31T09:53:13.955Z,1021.56
2022-10-31T10:22:02.844Z,1021.56
2022-10-31T10:51:01.975Z,1021.56
2022-10-31T11:19:55.272Z,1021.22
2022-10-31T11:48:47.269Z,1020.63
2022-10-31T12:17:45.953Z,1020.02
2022-10-31T12:46:38.884Z,1019.86
2022-10-31T13:15:37.005Z,1019.41
2022-10-31T13:44:27.450Z,1019.33
2022-10-31T14:13:28.371Z,1018.75
2022-10-31T14:42:23.251Z,1017.65
2022-10-31T15:11:25.823Z,1017.72
2022-10-31T15:40:21.479Z,1017.69
2022-10-31T16:09:18.847Z,1017.98
2022-10-31T16:38:27.310Z,1017.94
2022-10-31T17:07:25.891Z,1018.18
2022-10-31T17:36:22.093Z,1018.54
2022-10-31T18:05:23.307Z,1018.56
2022-10-31T18:34:27.846Z,1018.65
2022-10-31T19:03:31.216Z,1018.57
2022-10-31T19:32:32.593Z,1018.57
2022-10-31T20:01:25.023Z,1018.4
2022-10-31T20:30:08.506Z,1018.25
2022-10-31T20:59:00.369Z,1018.02
2022-10-31T21:27:53.449Z,1018.05
2022-10-31T21:56:49.855Z,1017.92
2022-10-31T22:25:50.052Z,1018.01
2022-10-31T22:54:59.652Z,1017.97
2022-10-31T23:23:17.634Z,1017.94
2022-10-31T23:52:16.664Z,1017.66
